sensor_id;sensor_type;location;lat;lon;timestamp;P1;durP1;ratioP1;P2;durP2;ratioP2
77888;SDS011;67082;41.704;44.768;2023-06-10T00:00:08;12.60;;;6.40;;
77888;SDS011;67082;41.704;44.768;2023-06-10T00:03:00;14.35;;;6.53;;
77888;SDS011;67082;41.704;44.768;2023-06-10T00:05:29;11.75;;;6.10;;
77888;SDS011;67082;41.704;44.768;2023-06-10T00:07:59;9.32;;;5.57;;
77888;SDS011;67082;41.704;44.768;2023-06-10T00:10:27;12.98;;;6.07;;
77888;SDS011;67082;41.704;44.768;2023-06-10T00:12:55;10.88;;;6.60;;
77888;SDS011;67082;41.704;44.768;2023-06-10T00:15:25;9.35;;;5.95;;
77888;SDS011;67082;41.704;44.768;2023-06-10T00:17:54;13.77;;;6.25;;
77888;SDS011;67082;41.704;44.768;2023-06-10T00:20:22;10.98;;;5.63;;
77888;SDS011;67082;41.704;44.768;2023-06-10T00:22:54;12.45;;;5.68;;
77888;SDS011;67082;41.704;44.768;2023-06-10T00:25:22;13.35;;;6.18;;
77888;SDS011;67082;41.704;44.768;2023-06-10T00:27:51;10.30;;;6.00;;
77888;SDS011;67082;41.704;44.768;2023-06-10T00:30:20;11.02;;;5.90;;
77888;SDS011;67082;41.704;44.768;2023-06-10T00:32:49;12.23;;;5.97;;
77888;SDS011;67082;41.704;44.768;2023-06-10T00:35:17;13.35;;;5.78;;
77888;SDS011;67082;41.704;44.768;2023-06-10T00:37:46;11.85;;;5.03;;
77888;SDS011;67082;41.704;44.768;2023-06-10T00:40:15;11.43;;;5.78;;
77888;SDS011;67082;41.704;44.768;2023-06-10T00:42:43;8.05;;;5.63;;
77888;SDS011;67082;41.704;44.768;2023-06-10T00:45:12;12.95;;;6.43;;
77888;SDS011;67082;41.704;44.768;2023-06-10T00:47:40;13.43;;;6.20;;
77888;SDS011;67082;41.704;44.768;2023-06-10T00:50:08;11.15;;;6.30;;
77888;SDS011;67082;41.704;44.768;2023-06-10T00:52:37;13.15;;;6.80;;
77888;SDS011;67082;41.704;44.768;2023-06-10T00:55:06;11.02;;;6.60;;
77888;SDS011;67082;41.704;44.768;2023-06-10T00:57:36;11.75;;;6.45;;
77888;SDS011;67082;41.704;44.768;2023-06-10T01:00:05;10.35;;;6.40;;
77888;SDS011;67082;41.704;44.768;2023-06-10T01:02:36;9.60;;;6.15;;
77888;SDS011;67082;41.704;44.768;2023-06-10T01:05:05;13.65;;;5.95;;
77888;SDS011;67082;41.704;44.768;2023-06-10T01:10:33;17.50;;;6.50;;
77888;SDS011;67082;41.704;44.768;2023-06-10T01:15:42;13.75;;;7.45;;
77888;SDS011;67082;41.704;44.768;2023-06-10T01:18:13;12.07;;;7.00;;
77888;SDS011;67082;41.704;44.768;2023-06-10T01:20:43;12.20;;;6.45;;
77888;SDS011;67082;41.704;44.768;2023-06-10T01:23:18;8.82;;;6.05;;
77888;SDS011;67082;41.704;44.768;2023-06-10T01:25:47;12.10;;;6.32;;
77888;SDS011;67082;41.704;44.768;2023-06-10T01:33:53;12.60;;;6.07;;
77888;SDS011;67082;41.704;44.768;2023-06-10T01:36:23;10.65;;;6.18;;
77888;SDS011;67082;41.704;44.768;2023-06-10T01:38:52;13.05;;;6.05;;
77888;SDS011;67082;41.704;44.768;2023-06-10T01:41:22;8.77;;;6.20;;
77888;SDS011;67082;41.704;44.768;2023-06-10T01:43:51;11.02;;;6.03;;
77888;SDS011;67082;41.704;44.768;2023-06-10T01:46:19;14.98;;;6.53;;
77888;SDS011;67082;41.704;44.768;2023-06-10T01:48:49;13.63;;;6.40;;
77888;SDS011;67082;41.704;44.768;2023-06-10T01:51:17;14.55;;;6.97;;
77888;SDS011;67082;41.704;44.768;2023-06-10T01:53:46;10.57;;;6.43;;
77888;SDS011;67082;41.704;44.768;2023-06-10T01:56:14;13.27;;;6.15;;
77888;SDS011;67082;41.704;44.768;2023-06-10T01:58:46;10.98;;;6.43;;
77888;SDS011;67082;41.704;44.768;2023-06-10T02:01:14;13.40;;;5.85;;
77888;SDS011;67082;41.704;44.768;2023-06-10T02:03:43;10.88;;;6.63;;
77888;SDS011;67082;41.704;44.768;2023-06-10T02:06:11;11.85;;;6.40;;
77888;SDS011;67082;41.704;44.768;2023-06-10T02:08:40;9.52;;;6.03;;
77888;SDS011;67082;41.704;44.768;2023-06-10T02:11:08;9.02;;;6.30;;
77888;SDS011;67082;41.704;44.768;2023-06-10T02:13:38;11.38;;;6.22;;
77888;SDS011;67082;41.704;44.768;2023-06-10T02:16:06;10.20;;;6.03;;
77888;SDS011;67082;41.704;44.768;2023-06-10T02:18:35;10.07;;;6.18;;
77888;SDS011;67082;41.704;44.768;2023-06-10T02:21:03;10.77;;;6.07;;
77888;SDS011;67082;41.704;44.768;2023-06-10T02:23:31;13.68;;;6.95;;
77888;SDS011;67082;41.704;44.768;2023-06-10T02:26:03;14.75;;;6.43;;
77888;SDS011;67082;41.704;44.768;2023-06-10T02:28:32;9.88;;;6.35;;
77888;SDS011;67082;41.704;44.768;2023-06-10T02:31:01;9.50;;;6.40;;
77888;SDS011;67082;41.704;44.768;2023-06-10T02:33:29;11.93;;;6.60;;
77888;SDS011;67082;41.704;44.768;2023-06-10T02:35:58;11.02;;;6.70;;
77888;SDS011;67082;41.704;44.768;2023-06-10T02:38:27;9.07;;;6.22;;
77888;SDS011;67082;41.704;44.768;2023-06-10T02:40:57;14.70;;;6.18;;
77888;SDS011;67082;41.704;44.768;2023-06-10T02:43:26;10.63;;;6.18;;
77888;SDS011;67082;41.704;44.768;2023-06-10T02:45:54;10.85;;;6.60;;
77888;SDS011;67082;41.704;44.768;2023-06-10T02:48:23;12.52;;;6.30;;
77888;SDS011;67082;41.704;44.768;2023-06-10T02:50:52;8.68;;;6.50;;
77888;SDS011;67082;41.704;44.768;2023-06-10T02:53:30;12.55;;;6.80;;
77888;SDS011;67082;41.704;44.768;2023-06-10T02:56:05;13.38;;;6.97;;
77888;SDS011;67082;41.704;44.768;2023-06-10T02:58:33;12.38;;;6.68;;
77888;SDS011;67082;41.704;44.768;2023-06-10T03:01:02;12.95;;;6.35;;
77888;SDS011;67082;41.704;44.768;2023-06-10T03:03:40;16.33;;;7.07;;
77888;SDS011;67082;41.704;44.768;2023-06-10T03:06:13;11.32;;;6.88;;
77888;SDS011;67082;41.704;44.768;2023-06-10T03:08:43;13.70;;;6.70;;
77888;SDS011;67082;41.704;44.768;2023-06-10T03:11:14;15.15;;;6.60;;
77888;SDS011;67082;41.704;44.768;2023-06-10T03:13:43;12.45;;;6.80;;
77888;SDS011;67082;41.704;44.768;2023-06-10T03:16:14;16.13;;;6.65;;
77888;SDS011;67082;41.704;44.768;2023-06-10T03:18:43;11.75;;;6.20;;
77888;SDS011;67082;41.704;44.768;2023-06-10T03:21:12;14.15;;;6.20;;
77888;SDS011;67082;41.704;44.768;2023-06-10T03:23:41;13.43;;;6.38;;
77888;SDS011;67082;41.704;44.768;2023-06-10T03:26:11;15.02;;;6.20;;
77888;SDS011;67082;41.704;44.768;2023-06-10T03:28:42;11.65;;;6.10;;
77888;SDS011;67082;41.704;44.768;2023-06-10T03:31:11;12.45;;;6.13;;
77888;SDS011;67082;41.704;44.768;2023-06-10T03:33:39;15.55;;;6.40;;
77888;SDS011;67082;41.704;44.768;2023-06-10T03:36:08;13.73;;;6.47;;
77888;SDS011;67082;41.704;44.768;2023-06-10T03:38:37;19.65;;;7.30;;
77888;SDS011;67082;41.704;44.768;2023-06-10T03:41:07;12.88;;;6.97;;
77888;SDS011;67082;41.704;44.768;2023-06-10T03:43:37;16.20;;;7.57;;
77888;SDS011;67082;41.704;44.768;2023-06-10T03:46:08;16.48;;;7.65;;
77888;SDS011;67082;41.704;44.768;2023-06-10T03:48:38;15.20;;;7.68;;
77888;SDS011;67082;41.704;44.768;2023-06-10T03:51:07;18.75;;;7.70;;
77888;SDS011;67082;41.704;44.768;2023-06-10T03:53:36;17.00;;;8.13;;
77888;SDS011;67082;41.704;44.768;2023-06-10T03:56:05;19.02;;;8.20;;
77888;SDS011;67082;41.704;44.768;2023-06-10T03:58:33;18.42;;;8.65;;
77888;SDS011;67082;41.704;44.768;2023-06-10T04:01:02;20.45;;;8.27;;
77888;SDS011;67082;41.704;44.768;2023-06-10T04:03:35;18.88;;;8.55;;
77888;SDS011;67082;41.704;44.768;2023-06-10T04:06:03;20.38;;;8.45;;
77888;SDS011;67082;41.704;44.768;2023-06-10T04:08:32;13.63;;;7.78;;
77888;SDS011;67082;41.704;44.768;2023-06-10T04:11:01;15.90;;;8.57;;
77888;SDS011;67082;41.704;44.768;2023-06-10T04:13:30;19.42;;;8.57;;
77888;SDS011;67082;41.704;44.768;2023-06-10T04:15:59;23.70;;;8.82;;
77888;SDS011;67082;41.704;44.768;2023-06-10T04:18:28;15.38;;;8.25;;
77888;SDS011;67082;41.704;44.768;2023-06-10T04:21:01;19.23;;;8.30;;
77888;SDS011;67082;41.704;44.768;2023-06-10T04:23:31;16.77;;;8.45;;
77888;SDS011;67082;41.704;44.768;2023-06-10T04:25:59;16.23;;;8.13;;
77888;SDS011;67082;41.704;44.768;2023-06-10T04:28:29;15.05;;;7.93;;
77888;SDS011;67082;41.704;44.768;2023-06-10T04:30:58;16.92;;;7.72;;
77888;SDS011;67082;41.704;44.768;2023-06-10T04:33:28;13.00;;;7.80;;
77888;SDS011;67082;41.704;44.768;2023-06-10T04:35:56;17.33;;;8.55;;
77888;SDS011;67082;41.704;44.768;2023-06-10T04:38:28;11.75;;;7.65;;
77888;SDS011;67082;41.704;44.768;2023-06-10T04:40:59;13.80;;;7.70;;
77888;SDS011;67082;41.704;44.768;2023-06-10T04:43:31;15.25;;;7.47;;
77888;SDS011;67082;41.704;44.768;2023-06-10T04:46:00;14.07;;;8.18;;
77888;SDS011;67082;41.704;44.768;2023-06-10T04:48:30;17.00;;;7.63;;
77888;SDS011;67082;41.704;44.768;2023-06-10T04:50:58;15.90;;;7.05;;
77888;SDS011;67082;41.704;44.768;2023-06-10T04:53:27;12.20;;;6.88;;
77888;SDS011;67082;41.704;44.768;2023-06-10T04:55:56;12.45;;;7.15;;
77888;SDS011;67082;41.704;44.768;2023-06-10T04:58:25;14.27;;;6.90;;
77888;SDS011;67082;41.704;44.768;2023-06-10T05:00:53;20.13;;;7.93;;
77888;SDS011;67082;41.704;44.768;2023-06-10T05:03:22;11.98;;;6.30;;
77888;SDS011;67082;41.704;44.768;2023-06-10T05:05:50;14.02;;;6.75;;
77888;SDS011;67082;41.704;44.768;2023-06-10T05:08:19;11.57;;;6.00;;
77888;SDS011;67082;41.704;44.768;2023-06-10T05:10:48;12.90;;;6.32;;
77888;SDS011;67082;41.704;44.768;2023-06-10T05:13:17;14.88;;;6.10;;
77888;SDS011;67082;41.704;44.768;2023-06-10T05:15:45;13.55;;;5.93;;
77888;SDS011;67082;41.704;44.768;2023-06-10T05:18:14;11.38;;;5.70;;
77888;SDS011;67082;41.704;44.768;2023-06-10T05:20:42;13.45;;;6.07;;
77888;SDS011;67082;41.704;44.768;2023-06-10T05:23:13;9.82;;;5.15;;
77888;SDS011;67082;41.704;44.768;2023-06-10T05:25:41;11.10;;;5.15;;
77888;SDS011;67082;41.704;44.768;2023-06-10T05:28:10;15.18;;;5.30;;
77888;SDS011;67082;41.704;44.768;2023-06-10T05:30:42;10.65;;;5.13;;
77888;SDS011;67082;41.704;44.768;2023-06-10T05:33:11;13.52;;;5.35;;
77888;SDS011;67082;41.704;44.768;2023-06-10T05:35:41;18.65;;;5.95;;
77888;SDS011;67082;41.704;44.768;2023-06-10T05:38:10;13.82;;;5.60;;
77888;SDS011;67082;41.704;44.768;2023-06-10T05:40:38;14.85;;;6.57;;
77888;SDS011;67082;41.704;44.768;2023-06-10T05:43:07;13.05;;;7.00;;
77888;SDS011;67082;41.704;44.768;2023-06-10T05:45:37;12.98;;;7.43;;
77888;SDS011;67082;41.704;44.768;2023-06-10T05:48:05;18.42;;;8.48;;
77888;SDS011;67082;41.704;44.768;2023-06-10T05:50:34;14.27;;;7.15;;
77888;SDS011;67082;41.704;44.768;2023-06-10T05:53:06;15.52;;;7.13;;
77888;SDS011;67082;41.704;44.768;2023-06-10T05:55:35;13.13;;;7.03;;
77888;SDS011;67082;41.704;44.768;2023-06-10T05:58:04;13.88;;;6.90;;
77888;SDS011;67082;41.704;44.768;2023-06-10T06:00:32;12.20;;;6.47;;
77888;SDS011;67082;41.704;44.768;2023-06-10T06:03:05;12.25;;;6.25;;
77888;SDS011;67082;41.704;44.768;2023-06-10T06:05:36;16.20;;;6.60;;
77888;SDS011;67082;41.704;44.768;2023-06-10T06:08:06;11.77;;;6.00;;
77888;SDS011;67082;41.704;44.768;2023-06-10T06:10:34;13.82;;;6.75;;
77888;SDS011;67082;41.704;44.768;2023-06-10T06:13:03;15.32;;;7.15;;
77888;SDS011;67082;41.704;44.768;2023-06-10T06:15:31;17.02;;;7.65;;
77888;SDS011;67082;41.704;44.768;2023-06-10T06:17:59;14.35;;;8.10;;
77888;SDS011;67082;41.704;44.768;2023-06-10T06:20:28;17.65;;;8.50;;
77888;SDS011;67082;41.704;44.768;2023-06-10T06:22:56;17.33;;;8.25;;
77888;SDS011;67082;41.704;44.768;2023-06-10T06:25:24;15.38;;;8.07;;
77888;SDS011;67082;41.704;44.768;2023-06-10T06:27:53;16.25;;;7.65;;
77888;SDS011;67082;41.704;44.768;2023-06-10T06:30:21;16.13;;;7.82;;
77888;SDS011;67082;41.704;44.768;2023-06-10T06:32:49;15.02;;;7.93;;
77888;SDS011;67082;41.704;44.768;2023-06-10T06:35:19;13.55;;;7.75;;
77888;SDS011;67082;41.704;44.768;2023-06-10T06:37:47;15.98;;;7.50;;
77888;SDS011;67082;41.704;44.768;2023-06-10T06:40:24;12.10;;;6.68;;
77888;SDS011;67082;41.704;44.768;2023-06-10T06:42:53;12.80;;;6.80;;
77888;SDS011;67082;41.704;44.768;2023-06-10T06:45:56;14.48;;;7.28;;
77888;SDS011;67082;41.704;44.768;2023-06-10T06:48:26;19.67;;;7.22;;
77888;SDS011;67082;41.704;44.768;2023-06-10T06:50:54;16.45;;;6.97;;
77888;SDS011;67082;41.704;44.768;2023-06-10T06:53:24;41.85;;;8.32;;
77888;SDS011;67082;41.704;44.768;2023-06-10T06:55:54;13.20;;;7.20;;
77888;SDS011;67082;41.704;44.768;2023-06-10T06:58:22;17.23;;;7.25;;
77888;SDS011;67082;41.704;44.768;2023-06-10T07:00:50;15.10;;;6.68;;
77888;SDS011;67082;41.704;44.768;2023-06-10T07:03:20;11.77;;;6.05;;
77888;SDS011;67082;41.704;44.768;2023-06-10T07:05:48;18.88;;;6.03;;
77888;SDS011;67082;41.704;44.768;2023-06-10T07:08:17;14.60;;;6.05;;
77888;SDS011;67082;41.704;44.768;2023-06-10T07:10:45;14.57;;;5.22;;
77888;SDS011;67082;41.704;44.768;2023-06-10T07:13:15;16.60;;;5.75;;
77888;SDS011;67082;41.704;44.768;2023-06-10T07:15:43;15.05;;;4.63;;
77888;SDS011;67082;41.704;44.768;2023-06-10T07:18:11;15.25;;;4.68;;
77888;SDS011;67082;41.704;44.768;2023-06-10T07:20:40;8.35;;;4.25;;
77888;SDS011;67082;41.704;44.768;2023-06-10T07:23:09;9.60;;;4.28;;
77888;SDS011;67082;41.704;44.768;2023-06-10T07:25:37;11.38;;;5.00;;
77888;SDS011;67082;41.704;44.768;2023-06-10T07:28:05;11.63;;;4.60;;
77888;SDS011;67082;41.704;44.768;2023-06-10T07:30:33;12.18;;;4.82;;
77888;SDS011;67082;41.704;44.768;2023-06-10T07:33:02;10.70;;;4.65;;
77888;SDS011;67082;41.704;44.768;2023-06-10T07:35:30;15.00;;;4.85;;
77888;SDS011;67082;41.704;44.768;2023-06-10T07:37:59;16.85;;;5.20;;
77888;SDS011;67082;41.704;44.768;2023-06-10T07:40:27;9.73;;;4.75;;
77888;SDS011;67082;41.704;44.768;2023-06-10T07:42:55;10.85;;;4.38;;
77888;SDS011;67082;41.704;44.768;2023-06-10T07:45:23;16.52;;;4.50;;
77888;SDS011;67082;41.704;44.768;2023-06-10T07:47:52;16.67;;;5.47;;
77888;SDS011;67082;41.704;44.768;2023-06-10T07:50:20;12.48;;;4.30;;
77888;SDS011;67082;41.704;44.768;2023-06-10T07:52:48;12.25;;;4.30;;
77888;SDS011;67082;41.704;44.768;2023-06-10T07:55:17;13.15;;;4.43;;
77888;SDS011;67082;41.704;44.768;2023-06-10T07:57:46;14.23;;;4.85;;
77888;SDS011;67082;41.704;44.768;2023-06-10T08:00:14;15.38;;;4.55;;
77888;SDS011;67082;41.704;44.768;2023-06-10T08:02:44;9.98;;;3.97;;
77888;SDS011;67082;41.704;44.768;2023-06-10T08:05:12;11.88;;;4.05;;
77888;SDS011;67082;41.704;44.768;2023-06-10T08:07:41;12.02;;;3.78;;
77888;SDS011;67082;41.704;44.768;2023-06-10T08:10:10;12.05;;;4.18;;
77888;SDS011;67082;41.704;44.768;2023-06-10T08:12:38;11.63;;;4.43;;
77888;SDS011;67082;41.704;44.768;2023-06-10T08:15:07;14.73;;;4.45;;
77888;SDS011;67082;41.704;44.768;2023-06-10T08:17:37;11.02;;;4.40;;
77888;SDS011;67082;41.704;44.768;2023-06-10T08:20:06;12.30;;;5.38;;
77888;SDS011;67082;41.704;44.768;2023-06-10T08:22:34;11.02;;;4.43;;
77888;SDS011;67082;41.704;44.768;2023-06-10T08:25:03;10.40;;;4.03;;
77888;SDS011;67082;41.704;44.768;2023-06-10T08:27:31;10.95;;;3.92;;
77888;SDS011;67082;41.704;44.768;2023-06-10T08:29:59;14.25;;;3.97;;
77888;SDS011;67082;41.704;44.768;2023-06-10T08:32:32;17.35;;;4.35;;
77888;SDS011;67082;41.704;44.768;2023-06-10T08:35:00;13.35;;;3.97;;
77888;SDS011;67082;41.704;44.768;2023-06-10T08:37:30;11.18;;;4.28;;
77888;SDS011;67082;41.704;44.768;2023-06-10T08:39:58;15.25;;;4.60;;
77888;SDS011;67082;41.704;44.768;2023-06-10T08:42:35;9.80;;;4.60;;
77888;SDS011;67082;41.704;44.768;2023-06-10T08:45:10;15.10;;;4.40;;
77888;SDS011;67082;41.704;44.768;2023-06-10T08:47:48;14.98;;;4.65;;
77888;SDS011;67082;41.704;44.768;2023-06-10T08:50:22;13.20;;;4.40;;
77888;SDS011;67082;41.704;44.768;2023-06-10T08:52:53;10.05;;;3.97;;
77888;SDS011;67082;41.704;44.768;2023-06-10T08:55:37;13.02;;;4.28;;
77888;SDS011;67082;41.704;44.768;2023-06-10T08:58:09;10.45;;;4.25;;
77888;SDS011;67082;41.704;44.768;2023-06-10T09:00:40;11.15;;;4.45;;
77888;SDS011;67082;41.704;44.768;2023-06-10T09:03:10;11.35;;;3.90;;
77888;SDS011;67082;41.704;44.768;2023-06-10T09:05:40;10.65;;;3.88;;
77888;SDS011;67082;41.704;44.768;2023-06-10T09:08:10;9.27;;;4.03;;
77888;SDS011;67082;41.704;44.768;2023-06-10T09:10:38;14.15;;;4.10;;
77888;SDS011;67082;41.704;44.768;2023-06-10T09:13:06;8.60;;;3.92;;
77888;SDS011;67082;41.704;44.768;2023-06-10T09:15:35;10.60;;;4.03;;
77888;SDS011;67082;41.704;44.768;2023-06-10T09:18:03;11.13;;;4.15;;
77888;SDS011;67082;41.704;44.768;2023-06-10T09:20:34;12.57;;;4.05;;
77888;SDS011;67082;41.704;44.768;2023-06-10T09:23:07;10.10;;;3.83;;
77888;SDS011;67082;41.704;44.768;2023-06-10T09:25:36;9.95;;;3.63;;
77888;SDS011;67082;41.704;44.768;2023-06-10T09:28:13;11.02;;;4.13;;
77888;SDS011;67082;41.704;44.768;2023-06-10T09:30:42;12.32;;;3.90;;
77888;SDS011;67082;41.704;44.768;2023-06-10T09:33:12;9.73;;;3.92;;
77888;SDS011;67082;41.704;44.768;2023-06-10T09:35:45;10.90;;;3.20;;
77888;SDS011;67082;41.704;44.768;2023-06-10T09:38:19;11.75;;;4.40;;
77888;SDS011;67082;41.704;44.768;2023-06-10T09:40:52;8.80;;;3.55;;
77888;SDS011;67082;41.704;44.768;2023-06-10T09:43:22;12.45;;;3.40;;
77888;SDS011;67082;41.704;44.768;2023-06-10T09:45:50;10.82;;;3.55;;
77888;SDS011;67082;41.704;44.768;2023-06-10T09:48:22;10.32;;;3.47;;
77888;SDS011;67082;41.704;44.768;2023-06-10T09:50:51;8.85;;;3.53;;
77888;SDS011;67082;41.704;44.768;2023-06-10T09:53:20;7.68;;;3.70;;
77888;SDS011;67082;41.704;44.768;2023-06-10T09:55:48;14.55;;;3.40;;
77888;SDS011;67082;41.704;44.768;2023-06-10T09:58:16;12.38;;;3.80;;
77888;SDS011;67082;41.704;44.768;2023-06-10T10:00:48;13.57;;;3.80;;
77888;SDS011;67082;41.704;44.768;2023-06-10T10:03:22;15.23;;;4.20;;
77888;SDS011;67082;41.704;44.768;2023-06-10T10:05:57;10.20;;;3.60;;
77888;SDS011;67082;41.704;44.768;2023-06-10T10:08:27;16.45;;;3.95;;
77888;SDS011;67082;41.704;44.768;2023-06-10T10:10:56;13.80;;;3.65;;
77888;SDS011;67082;41.704;44.768;2023-06-10T10:13:25;13.48;;;4.22;;
77888;SDS011;67082;41.704;44.768;2023-06-10T10:15:56;8.20;;;4.07;;
77888;SDS011;67082;41.704;44.768;2023-06-10T10:18:30;15.63;;;4.07;;
77888;SDS011;67082;41.704;44.768;2023-06-10T10:21:01;9.05;;;3.58;;
77888;SDS011;67082;41.704;44.768;2023-06-10T10:23:44;8.80;;;3.60;;
77888;SDS011;67082;41.704;44.768;2023-06-10T10:26:21;13.38;;;3.85;;
77888;SDS011;67082;41.704;44.768;2023-06-10T10:29:38;11.63;;;3.50;;
77888;SDS011;67082;41.704;44.768;2023-06-10T10:31:51;12.18;;;3.90;;
77888;SDS011;67082;41.704;44.768;2023-06-10T10:34:24;9.48;;;3.30;;
77888;SDS011;67082;41.704;44.768;2023-06-10T10:37:02;9.98;;;3.78;;
77888;SDS011;67082;41.704;44.768;2023-06-10T10:39:33;14.88;;;3.95;;
77888;SDS011;67082;41.704;44.768;2023-06-10T10:42:02;10.48;;;3.30;;
77888;SDS011;67082;41.704;44.768;2023-06-10T10:44:32;10.02;;;4.05;;
77888;SDS011;67082;41.704;44.768;2023-06-10T10:47:02;7.25;;;3.30;;
77888;SDS011;67082;41.704;44.768;2023-06-10T10:49:32;8.65;;;3.30;;
77888;SDS011;67082;41.704;44.768;2023-06-10T10:52:04;12.55;;;3.38;;
77888;SDS011;67082;41.704;44.768;2023-06-10T10:54:39;9.90;;;3.33;;
77888;SDS011;67082;41.704;44.768;2023-06-10T10:57:15;12.00;;;3.45;;
77888;SDS011;67082;41.704;44.768;2023-06-10T11:02:20;12.68;;;3.60;;
77888;SDS011;67082;41.704;44.768;2023-06-10T11:05:16;8.50;;;3.55;;
77888;SDS011;67082;41.704;44.768;2023-06-10T11:07:54;9.95;;;3.65;;
77888;SDS011;67082;41.704;44.768;2023-06-10T11:10:30;10.95;;;3.60;;
77888;SDS011;67082;41.704;44.768;2023-06-10T11:13:09;6.85;;;3.38;;
77888;SDS011;67082;41.704;44.768;2023-06-10T11:15:45;8.95;;;3.15;;
77888;SDS011;67082;41.704;44.768;2023-06-10T11:18:22;14.23;;;4.10;;
77888;SDS011;67082;41.704;44.768;2023-06-10T11:31:22;11.35;;;3.70;;
77888;SDS011;67082;41.704;44.768;2023-06-10T11:33:58;15.57;;;3.90;;
77888;SDS011;67082;41.704;44.768;2023-06-10T11:36:28;11.55;;;3.60;;
77888;SDS011;67082;41.704;44.768;2023-06-10T11:38:57;8.63;;;3.80;;
77888;SDS011;67082;41.704;44.768;2023-06-10T11:41:27;8.57;;;3.60;;
77888;SDS011;67082;41.704;44.768;2023-06-10T11:44:02;7.85;;;3.75;;
77888;SDS011;67082;41.704;44.768;2023-06-10T11:46:31;10.82;;;3.80;;
77888;SDS011;67082;41.704;44.768;2023-06-10T11:49:02;8.45;;;3.50;;
77888;SDS011;67082;41.704;44.768;2023-06-10T11:51:35;6.93;;;3.45;;
77888;SDS011;67082;41.704;44.768;2023-06-10T11:54:05;9.68;;;3.15;;
77888;SDS011;67082;41.704;44.768;2023-06-10T11:56:34;7.20;;;3.15;;
77888;SDS011;67082;41.704;44.768;2023-06-10T11:59:03;13.82;;;3.13;;
77888;SDS011;67082;41.704;44.768;2023-06-10T12:01:36;10.65;;;3.05;;
77888;SDS011;67082;41.704;44.768;2023-06-10T12:04:11;10.55;;;3.22;;
77888;SDS011;67082;41.704;44.768;2023-06-10T12:06:45;5.97;;;3.05;;
77888;SDS011;67082;41.704;44.768;2023-06-10T12:09:22;9.95;;;2.80;;
77888;SDS011;67082;41.704;44.768;2023-06-10T12:20:00;12.98;;;3.30;;
77888;SDS011;67082;41.704;44.768;2023-06-10T12:22:41;7.82;;;2.78;;
77888;SDS011;67082;41.704;44.768;2023-06-10T12:25:11;12.73;;;3.50;;
77888;SDS011;67082;41.704;44.768;2023-06-10T12:27:49;14.38;;;3.20;;
77888;SDS011;67082;41.704;44.768;2023-06-10T12:30:20;6.78;;;3.05;;
77888;SDS011;67082;41.704;44.768;2023-06-10T12:32:50;7.63;;;2.60;;
77888;SDS011;67082;41.704;44.768;2023-06-10T12:35:20;7.60;;;2.90;;
77888;SDS011;67082;41.704;44.768;2023-06-10T12:37:56;21.33;;;3.03;;
77888;SDS011;67082;41.704;44.768;2023-06-10T12:40:30;14.20;;;2.90;;
77888;SDS011;67082;41.704;44.768;2023-06-10T12:43:00;7.80;;;2.92;;
77888;SDS011;67082;41.704;44.768;2023-06-10T12:45:36;8.18;;;3.15;;
77888;SDS011;67082;41.704;44.768;2023-06-10T12:48:18;15.85;;;5.72;;
77888;SDS011;67082;41.704;44.768;2023-06-10T12:50:54;16.75;;;4.00;;
77888;SDS011;67082;41.704;44.768;2023-06-10T12:53:24;9.20;;;3.10;;
77888;SDS011;67082;41.704;44.768;2023-06-10T12:55:54;10.30;;;3.47;;
77888;SDS011;67082;41.704;44.768;2023-06-10T12:58:22;13.40;;;4.03;;
77888;SDS011;67082;41.704;44.768;2023-06-10T13:00:51;10.23;;;3.40;;
77888;SDS011;67082;41.704;44.768;2023-06-10T13:03:21;6.90;;;2.90;;
77888;SDS011;67082;41.704;44.768;2023-06-10T13:05:49;7.38;;;3.47;;
77888;SDS011;67082;41.704;44.768;2023-06-10T13:08:18;11.30;;;3.50;;
77888;SDS011;67082;41.704;44.768;2023-06-10T13:10:46;10.15;;;3.65;;
77888;SDS011;67082;41.704;44.768;2023-06-10T13:13:16;8.80;;;3.40;;
77888;SDS011;67082;41.704;44.768;2023-06-10T13:15:45;17.38;;;3.88;;
77888;SDS011;67082;41.704;44.768;2023-06-10T13:18:13;8.27;;;4.13;;
77888;SDS011;67082;41.704;44.768;2023-06-10T13:20:41;12.27;;;3.85;;
77888;SDS011;67082;41.704;44.768;2023-06-10T13:23:10;8.95;;;3.65;;
77888;SDS011;67082;41.704;44.768;2023-06-10T13:25:38;11.25;;;3.53;;
77888;SDS011;67082;41.704;44.768;2023-06-10T13:28:08;8.13;;;3.30;;
77888;SDS011;67082;41.704;44.768;2023-06-10T13:30:36;11.95;;;3.58;;
77888;SDS011;67082;41.704;44.768;2023-06-10T13:33:05;9.82;;;3.95;;
77888;SDS011;67082;41.704;44.768;2023-06-10T13:35:33;14.32;;;5.30;;
77888;SDS011;67082;41.704;44.768;2023-06-10T13:38:01;7.55;;;3.47;;
77888;SDS011;67082;41.704;44.768;2023-06-10T13:40:29;14.13;;;5.80;;
77888;SDS011;67082;41.704;44.768;2023-06-10T13:42:58;10.15;;;4.10;;
77888;SDS011;67082;41.704;44.768;2023-06-10T13:45:26;7.80;;;3.10;;
77888;SDS011;67082;41.704;44.768;2023-06-10T13:47:55;8.82;;;3.47;;
77888;SDS011;67082;41.704;44.768;2023-06-10T13:50:24;8.98;;;3.85;;
77888;SDS011;67082;41.704;44.768;2023-06-10T13:52:53;13.55;;;5.47;;
77888;SDS011;67082;41.704;44.768;2023-06-10T13:55:21;16.00;;;7.35;;
77888;SDS011;67082;41.704;44.768;2023-06-10T13:57:49;20.77;;;11.90;;
77888;SDS011;67082;41.704;44.768;2023-06-10T14:00:17;23.30;;;12.85;;
77888;SDS011;67082;41.704;44.768;2023-06-10T14:02:46;12.93;;;4.57;;
77888;SDS011;67082;41.704;44.768;2023-06-10T14:05:14;11.20;;;4.10;;
77888;SDS011;67082;41.704;44.768;2023-06-10T14:07:43;9.65;;;3.88;;
77888;SDS011;67082;41.704;44.768;2023-06-10T14:10:11;12.07;;;4.25;;
77888;SDS011;67082;41.704;44.768;2023-06-10T14:12:39;7.05;;;3.70;;
77888;SDS011;67082;41.704;44.768;2023-06-10T14:15:08;10.25;;;3.78;;
77888;SDS011;67082;41.704;44.768;2023-06-10T14:17:37;16.20;;;7.55;;
77888;SDS011;67082;41.704;44.768;2023-06-10T14:20:06;11.00;;;6.07;;
77888;SDS011;67082;41.704;44.768;2023-06-10T14:22:35;12.20;;;4.75;;
77888;SDS011;67082;41.704;44.768;2023-06-10T14:25:03;14.75;;;5.38;;
77888;SDS011;67082;41.704;44.768;2023-06-10T14:27:32;9.35;;;4.07;;
77888;SDS011;67082;41.704;44.768;2023-06-10T14:30:02;15.48;;;4.72;;
77888;SDS011;67082;41.704;44.768;2023-06-10T14:32:32;18.05;;;5.10;;
77888;SDS011;67082;41.704;44.768;2023-06-10T14:35:00;20.83;;;4.40;;
77888;SDS011;67082;41.704;44.768;2023-06-10T14:37:30;16.50;;;4.45;;
77888;SDS011;67082;41.704;44.768;2023-06-10T14:39:58;13.38;;;4.25;;
77888;SDS011;67082;41.704;44.768;2023-06-10T14:42:26;11.60;;;5.47;;
77888;SDS011;67082;41.704;44.768;2023-06-10T14:44:54;12.63;;;4.78;;
77888;SDS011;67082;41.704;44.768;2023-06-10T14:47:22;15.93;;;4.10;;
77888;SDS011;67082;41.704;44.768;2023-06-10T14:49:51;16.42;;;4.85;;
77888;SDS011;67082;41.704;44.768;2023-06-10T14:52:19;8.68;;;3.80;;
77888;SDS011;67082;41.704;44.768;2023-06-10T14:54:47;10.13;;;3.92;;
77888;SDS011;67082;41.704;44.768;2023-06-10T14:57:16;8.18;;;4.20;;
77888;SDS011;67082;41.704;44.768;2023-06-10T14:59:44;10.05;;;4.00;;
77888;SDS011;67082;41.704;44.768;2023-06-10T15:02:12;9.00;;;3.42;;
77888;SDS011;67082;41.704;44.768;2023-06-10T15:04:40;9.45;;;3.70;;
77888;SDS011;67082;41.704;44.768;2023-06-10T15:07:08;9.82;;;4.30;;
77888;SDS011;67082;41.704;44.768;2023-06-10T15:09:36;11.57;;;4.15;;
77888;SDS011;67082;41.704;44.768;2023-06-10T15:12:06;11.38;;;3.88;;